METAR Data
IDs: Format: Raw Decoded Include TAF

Data at: 1352 UTC 20 Oct 2021

LHPR 201315Z AUTO 15016KT 120V180 CAVOK 20/07 Q1018 NOSIG